Time;durP1;ratioP1;P1;durP2;ratioP2;P2;SDS_P1;SDS_P2;PMS_P1;PMS_P2;Temp;Humidity;BMP_temperature;BMP_pressure;BME280_temperature;BME280_humidity;BME280_pressure;Samples;Min_cycle;Max_cycle;Signal;HPM_P1;HPM_P2
2023/01/04 00:01:40;;;;;;;92.08;49.63;;;;;;;2.84;100.00;100345.05;4090384;85;20998;-90
2023/01/04 00:07:41;;;;;;;107.92;54.42;;;;;;;2.70;100.00;100328.74;4087342;84;21057;-90
2023/01/04 00:13:43;;;;;;;102.65;51.95;;;;;;;2.63;100.00;100339.09;4006498;87;21036;-89
2023/01/04 00:19:44;;;;;;;88.58;46.15;;;;;;;2.59;100.00;100348.89;3941865;88;21112;-90
2023/01/04 00:25:46;;;;;;;99.80;47.45;;;;;;;2.52;100.00;100341.67;3943371;88;21084;-90
2023/01/04 00:31:47;;;;;;;90.30;46.40;;;;;;;2.41;100.00;100350.99;3995681;87;21090;-89
2023/01/04 00:37:48;;;;;;;99.37;49.93;;;;;;;2.25;100.00;100356.34;3995175;87;21051;-90
2023/01/04 00:43:50;;;;;;;87.00;43.48;;;;;;;2.25;100.00;100354.98;3993169;87;21988;-89
2023/01/04 00:49:51;;;;;;;89.75;45.88;;;;;;;2.19;100.00;100350.73;3992570;87;21851;-90
2023/01/04 00:56:00;;;;;;;90.55;46.37;;;;;;;2.12;100.00;100339.99;3936356;89;21074;-90
2023/01/04 01:02:02;;;;;;;93.67;45.15;;;;;;;2.02;100.00;100340.91;3941297;87;21397;-90
2023/01/04 01:08:23;;;;;;;88.62;45.17;;;;;;;1.92;100.00;100345.61;3932567;89;21627;-90
2023/01/04 01:14:10;;;;;;;87.17;42.45;;;;;;;1.79;100.00;100343.57;3945413;87;21023;-91
2023/01/04 01:20:11;;;;;;;93.12;43.20;;;;;;;1.58;100.00;100327.57;4036199;86;21081;-89
2023/01/04 01:26:16;;;;;;;90.72;46.00;;;;;;;1.42;100.00;100330.16;4097007;85;21069;-90
2023/01/04 01:32:17;;;;;;;81.25;39.15;;;;;;;1.29;100.00;100317.84;4103876;84;21078;-89
2023/01/04 01:38:19;;;;;;;77.47;37.95;;;;;;;1.18;100.00;100322.52;4083491;85;21066;-89
2023/01/04 01:44:45;;;;;;;79.62;39.58;;;;;;;1.10;100.00;100317.72;4062147;85;21067;-89
2023/01/04 01:50:58;;;;;;;84.77;41.48;;;;;;;0.94;100.00;100318.91;4103131;85;22096;-89
2023/01/04 01:57:03;;;;;;;67.65;33.00;;;;;;;0.76;100.00;100311.48;4083282;85;21657;-89
2023/01/04 02:03:21;;;;;;;75.75;38.33;;;;;;;0.65;100.00;100319.90;4085281;85;21022;-89
2023/01/04 02:09:23;;;;;;;83.60;42.25;;;;;;;0.52;100.00;100317.83;4074577;84;21094;-89
2023/01/04 02:15:28;;;;;;;76.35;38.02;;;;;;;0.32;100.00;100330.84;4075116;84;21670;-89
2023/01/04 02:21:56;;;;;;;78.85;40.45;;;;;;;0.21;100.00;100329.26;4083605;84;21054;-90
2023/01/04 02:28:41;;;;;;;83.22;42.03;;;;;;;0.18;100.00;100340.59;4084491;84;21492;-89
2023/01/04 02:35:02;;;;;;;80.32;40.35;;;;;;;0.14;100.00;100338.72;4085284;85;21026;-88
2023/01/04 02:41:11;;;;;;;75.35;37.70;;;;;;;0.04;100.00;100323.40;4083389;85;21064;-90
2023/01/04 02:53:47;;;;;;;76.02;37.45;;;;;;;0.06;100.00;100315.86;4081438;85;21022;-88
2023/01/04 03:00:12;;;;;;;73.30;37.42;;;;;;;-0.09;100.00;100297.86;4078671;84;21081;-89
2023/01/04 03:06:18;;;;;;;77.72;39.13;;;;;;;-0.09;100.00;100297.86;4072319;85;21142;-88
2023/01/04 03:12:33;;;;;;;73.62;37.25;;;;;;;-0.15;100.00;100280.12;4089809;85;21057;-88
2023/01/04 03:18:42;;;;;;;78.25;36.85;;;;;;;-0.15;100.00;100280.12;4052290;85;21082;-88
2023/01/04 03:37:48;;;;;;;75.35;38.95;;;;;;;-0.49;100.00;100269.72;4030051;87;21062;-89
2023/01/04 03:50:33;;;;;;;89.45;42.85;;;;;;;-0.62;100.00;100272.13;4011537;86;21119;-88
2023/01/04 03:56:40;;;;;;;90.87;45.88;;;;;;;-0.69;100.00;100271.62;4017612;87;21623;-88
2023/01/04 04:02:49;;;;;;;94.73;45.90;;;;;;;-0.80;100.00;100272.14;3998766;87;21023;-89
2023/01/04 04:08:49;;;;;;;94.72;45.23;;;;;;;-0.98;100.00;100270.53;4028284;86;21020;-88
2023/01/04 04:14:50;;;;;;;99.00;50.53;;;;;;;-1.09;100.00;100261.67;4032431;86;21974;-88
2023/01/04 04:20:56;;;;;;;83.35;43.08;;;;;;;-1.07;100.00;100255.50;4037606;87;21080;-89
2023/01/04 04:26:58;;;;;;;88.57;46.17;;;;;;;-1.07;100.00;100256.03;4034772;87;21337;-87
2023/01/04 04:32:59;;;;;;;93.90;47.23;;;;;;;-1.15;100.00;100242.59;4037973;87;21485;-87
2023/01/04 04:39:00;;;;;;;97.00;44.53;;;;;;;-1.20;100.00;100249.30;4035506;87;21521;-89
2023/01/04 04:45:02;;;;;;;84.80;41.43;;;;;;;-1.38;100.00;100242.30;4043703;85;21403;-88
2023/01/04 04:51:04;;;;;;;96.50;45.23;;;;;;;-1.41;100.00;100246.87;4040761;87;21508;-88
2023/01/04 04:57:08;;;;;;;84.70;39.73;;;;;;;-1.37;100.00;100242.04;4036257;86;21026;-90
2023/01/04 05:03:09;;;;;;;99.17;48.33;;;;;;;-1.40;100.00;100239.88;4018551;86;21554;-88
2023/01/04 05:09:12;;;;;;;99.13;49.00;;;;;;;-1.57;100.00;100228.58;4037549;86;21009;-88
2023/01/04 05:15:14;;;;;;;122.60;60.47;;;;;;;-1.65;100.00;100217.02;4035196;86;21074;-90
2023/01/04 05:21:15;;;;;;;172.17;61.90;;;;;;;-1.73;100.00;100207.61;4020753;85;21576;-88
2023/01/04 05:27:16;;;;;;;130.67;55.77;;;;;;;-1.77;100.00;100189.06;4038666;86;20999;-89
2023/01/04 05:34:05;;;;;;;133.27;58.33;;;;;;;-1.79;100.00;100172.97;4035402;87;21037;-87
2023/01/04 05:40:08;;;;;;;125.10;55.17;;;;;;;-1.85;100.00;100172.13;4040868;86;21021;-86
2023/01/04 05:46:10;;;;;;;116.40;55.97;;;;;;;-1.94;100.00;100176.94;4041939;86;21484;-87
2023/01/04 05:52:16;;;;;;;122.67;55.47;;;;;;;-2.03;100.00;100183.37;4039421;86;21132;-86
2023/01/04 05:58:17;;;;;;;121.27;56.00;;;;;;;-2.15;100.00;100176.10;4029708;86;21115;-87
2023/01/04 06:04:19;;;;;;;138.13;63.10;;;;;;;-2.09;100.00;100180.41;4043287;86;21090;-87
2023/01/04 06:10:21;;;;;;;134.77;60.03;;;;;;;-1.99;100.00;100166.22;4045308;86;22035;-86
2023/01/04 06:16:23;;;;;;;150.07;66.93;;;;;;;-1.96;100.00;100175.86;4054307;86;20999;-86
2023/01/04 06:22:25;;;;;;;135.30;60.77;;;;;;;-1.91;100.00;100179.13;4035988;87;21544;-86
2023/01/04 06:28:30;;;;;;;145.07;62.77;;;;;;;-1.90;100.00;100167.30;4044073;87;21493;-86
2023/01/04 06:34:35;;;;;;;133.07;60.13;;;;;;;-1.98;100.00;100167.30;4041446;87;21044;-86
2023/01/04 06:40:37;;;;;;;100.15;47.62;;;;;;;-2.11;100.00;100155.71;3954818;88;21062;-86
2023/01/04 06:46:44;;;;;;;127.10;56.00;;;;;;;-2.33;100.00;100142.22;4042393;87;21615;-87
2023/01/04 06:52:52;;;;;;;140.57;64.67;;;;;;;-2.42;100.00;100139.78;4071479;86;21025;-88
2023/01/04 06:58:56;;;;;;;126.57;58.70;;;;;;;-2.37;100.00;100129.08;4073225;86;21810;-87
2023/01/04 07:05:02;;;;;;;159.97;75.70;;;;;;;-2.37;100.00;100133.09;4068023;86;22009;-86
2023/01/04 07:11:18;;;;;;;137.72;66.65;;;;;;;-2.41;100.00;100146.77;4056745;86;21553;-87
2023/01/04 07:24:04;;;;;;;154.27;75.17;;;;;;;-2.34;100.00;100133.39;4063805;86;21578;-87
2023/01/04 07:30:57;;;;;;;183.37;85.07;;;;;;;-2.29;100.00;100140.11;4069693;86;21079;-87
2023/01/04 07:37:10;;;;;;;149.23;71.63;;;;;;;-2.24;100.00;100132.05;4061833;86;20989;-86
2023/01/04 07:43:12;;;;;;;173.37;84.77;;;;;;;-2.16;100.00;100118.69;4072648;86;21515;-86
2023/01/04 07:49:20;;;;;;;209.07;100.93;;;;;;;-1.80;100.00;100118.47;4075311;86;21035;-87
2023/01/04 07:55:22;;;;;;;158.53;77.43;;;;;;;-1.37;100.00;100119.82;4056073;86;21091;-87
2023/01/04 08:01:25;;;;;;;118.87;57.20;;;;;;;-0.98;100.00;100124.87;4072714;86;21999;-87
2023/01/04 08:07:27;;;;;;;113.47;55.13;;;;;;;-0.64;100.00;100112.95;4068227;86;21035;-88
2023/01/04 08:13:28;;;;;;;100.42;51.63;;;;;;;-0.39;100.00;100107.44;4069443;86;22033;-88
2023/01/04 08:19:30;;;;;;;107.25;53.40;;;;;;;-0.13;100.00;100089.56;4067632;86;21587;-88
2023/01/04 08:25:31;;;;;;;168.52;74.82;;;;;;;0.17;100.00;100087.74;4076015;86;20949;-88
2023/01/04 08:31:33;;;;;;;132.03;65.55;;;;;;;0.17;100.00;100087.74;4067046;85;21023;-88
2023/01/04 08:37:34;;;;;;;152.00;67.50;;;;;;;0.48;100.00;100096.66;4067278;86;21173;-87
2023/01/04 08:43:36;;;;;;;157.50;75.62;;;;;;;0.85;100.00;100106.81;4068518;86;21071;-88
2023/01/04 08:49:37;;;;;;;143.40;67.60;;;;;;;1.41;100.00;100101.88;4070157;86;21079;-87
2023/01/04 08:55:38;;;;;;;138.75;67.27;;;;;;;1.81;100.00;100100.58;4067752;86;21023;-89
2023/01/04 09:01:41;;;;;;;131.10;66.87;;;;;;;2.26;100.00;100104.50;4070282;86;21023;-88
2023/01/04 09:07:42;;;;;;;119.13;63.65;;;;;;;3.02;100.00;100086.70;4067401;86;21996;-87
2023/01/04 09:13:44;;;;;;;107.47;57.27;;;;;;;3.78;100.00;100071.63;4070753;86;21997;-88
2023/01/04 09:19:46;;;;;;;103.78;53.08;;;;;;;4.41;100.00;100063.66;4012242;87;21065;-88
2023/01/04 09:25:47;;;;;;;100.00;50.65;;;;;;;5.16;100.00;100054.63;3987759;87;21556;-88
2023/01/04 09:31:49;;;;;;;99.42;51.73;;;;;;;5.59;100.00;100040.64;3983621;87;21561;-89
2023/01/04 09:37:50;;;;;;;91.42;49.90;;;;;;;6.25;100.00;100038.86;3984524;87;21023;-88
2023/01/04 09:43:59;;;;;;;85.35;48.90;;;;;;;6.87;100.00;100004.66;3984130;87;21001;-89
2023/01/04 09:50:15;;;;;;;76.33;44.75;;;;;;;7.47;100.00;99997.55;3981274;87;21006;-89
2023/01/04 09:56:28;;;;;;;76.95;41.55;;;;;;;7.69;100.00;99988.48;3979080;87;21612;-89
2023/01/04 10:02:52;;;;;;;55.00;31.20;;;;;;;8.32;100.00;99978.34;3983474;87;21571;-90
2023/01/04 10:08:58;;;;;;;33.58;19.32;;;;;;;9.02;100.00;99955.62;3982677;87;21131;-90
2023/01/04 10:15:31;;;;;;;19.98;11.05;;;;;;;9.57;100.00;99926.88;3982928;87;21079;-90
2023/01/04 10:21:50;;;;;;;26.40;14.03;;;;;;;9.84;100.00;99912.42;3982186;87;21083;-90
2023/01/04 10:28:17;;;;;;;17.90;10.13;;;;;;;10.06;100.00;99903.66;3984860;87;21045;-89
2023/01/04 10:34:33;;;;;;;22.65;11.38;;;;;;;10.39;100.00;99880.38;3982279;87;21067;-89
2023/01/04 10:40:38;;;;;;;19.20;10.70;;;;;;;10.66;100.00;99871.86;3982983;87;21016;-90
2023/01/04 10:47:12;;;;;;;19.77;10.28;;;;;;;10.68;100.00;99855.87;3987124;87;21686;-90
2023/01/04 10:53:45;;;;;;;19.15;10.32;;;;;;;10.86;99.70;99849.66;3981354;87;21052;-91
2023/01/04 11:00:01;;;;;;;14.83;8.70;;;;;;;10.92;98.74;99829.62;3985418;87;22034;-91
2023/01/04 11:06:17;;;;;;;12.50;6.40;;;;;;;10.88;97.67;99828.17;3980693;87;21115;-91
2023/01/04 11:12:22;;;;;;;5.33;3.85;;;;;;;10.54;95.77;99807.02;3982275;87;21063;-89
2023/01/04 11:18:23;;;;;;;12.70;6.55;;;;;;;10.25;94.48;99795.18;3983555;86;21119;-91
2023/01/04 11:24:29;;;;;;;16.20;9.45;;;;;;;10.02;93.65;99772.30;3985933;87;21068;-91
2023/01/04 11:30:50;;;;;;;18.95;9.28;;;;;;;9.83;92.73;99760.44;3984210;87;21131;-91
2023/01/04 11:36:52;;;;;;;21.82;10.05;;;;;;;9.79;92.02;99750.00;3982038;87;21457;-89
2023/01/04 11:43:17;;;;;;;15.15;9.18;;;;;;;9.78;92.45;99721.05;3986085;87;21056;-90
2023/01/04 11:49:19;;;;;;;9.00;4.90;;;;;;;9.74;91.67;99711.37;3981567;87;21151;-89
2023/01/04 11:55:29;;;;;;;10.75;5.97;;;;;;;9.67;91.76;99705.74;3981567;87;22009;-90
2023/01/04 12:01:36;;;;;;;15.25;6.28;;;;;;;9.48;89.83;99701.53;3985847;87;22054;-91
2023/01/04 12:07:40;;;;;;;13.83;8.13;;;;;;;9.23;89.76;99694.04;3983598;87;21066;-90
2023/01/04 12:13:42;;;;;;;4.53;2.35;;;;;;;9.10;89.69;99694.42;3984937;87;22027;-91
2023/01/04 12:19:46;;;;;;;1.90;1.40;;;;;;;9.00;89.34;99674.45;3960872;87;22074;-90
2023/01/04 12:25:51;;;;;;;7.92;1.80;;;;;;;8.87;88.94;99664.16;3938357;89;21029;-89
2023/01/04 12:32:02;;;;;;;4.92;1.02;;;;;;;8.91;88.57;99638.32;3943360;89;21015;-90
2023/01/04 12:38:06;;;;;;;4.37;1.70;;;;;;;8.97;87.58;99625.41;3945390;87;21854;-90
2023/01/04 12:44:39;;;;;;;3.83;1.60;;;;;;;9.10;87.28;99611.12;3949801;89;21044;-90
2023/01/04 12:51:02;;;;;;;5.22;2.33;;;;;;;9.18;86.93;99591.84;3940420;87;21149;-91
2023/01/04 12:57:22;;;;;;;4.80;1.98;;;;;;;9.27;86.47;99592.47;3933056;88;21117;-91
2023/01/04 13:03:32;;;;;;;4.25;1.60;;;;;;;9.24;86.06;99590.44;3946608;88;21014;-89
2023/01/04 13:09:37;;;;;;;3.92;1.57;;;;;;;9.14;83.47;99568.32;3938066;88;21056;-90
2023/01/04 13:16:28;;;;;;;4.72;1.60;;;;;;;9.00;84.61;99557.03;3947644;87;21668;-90
2023/01/04 13:22:32;;;;;;;3.45;2.05;;;;;;;8.85;84.20;99542.20;3939260;89;22018;-91
2023/01/04 13:28:35;;;;;;;3.85;1.90;;;;;;;8.69;83.79;99535.92;3940305;89;21078;-90
2023/01/04 13:34:58;;;;;;;3.83;1.60;;;;;;;8.55;82.61;99525.98;3938943;89;21058;-91
2023/01/04 13:41:00;;;;;;;4.65;2.52;;;;;;;8.41;82.75;99505.13;3935649;88;21037;-91
2023/01/04 13:47:01;;;;;;;7.28;3.27;;;;;;;8.31;81.90;99493.94;3939316;88;21062;-90
2023/01/04 13:53:04;;;;;;;5.30;2.70;;;;;;;8.20;82.22;99485.99;3935593;89;21050;-91
2023/01/04 13:59:08;;;;;;;7.47;2.90;;;;;;;8.07;82.41;99468.08;3935961;89;22033;-91
2023/01/04 14:05:17;;;;;;;7.05;2.77;;;;;;;7.91;82.51;99464.73;3942853;88;21545;-91
2023/01/04 14:17:55;;;;;;;7.22;3.10;;;;;;;7.74;82.01;99447.30;3939350;87;21182;-91
2023/01/04 14:23:57;;;;;;;7.70;3.70;;;;;;;7.55;81.89;99440.87;3956709;89;21553;-90
2023/01/04 14:30:16;;;;;;;11.45;4.65;;;;;;;7.40;81.82;99427.41;3959176;87;21130;-89
2023/01/04 14:36:25;;;;;;;9.90;4.60;;;;;;;7.24;81.57;99428.44;3950949;87;21133;-91
2023/01/04 14:42:28;;;;;;;10.38;4.37;;;;;;;7.07;80.20;99401.46;3950628;87;21082;-91
2023/01/04 14:48:30;;;;;;;5.50;3.02;;;;;;;6.95;80.74;99394.67;3950234;88;21524;-89
2023/01/04 14:54:33;;;;;;;7.45;2.87;;;;;;;6.93;80.88;99398.30;3950245;87;21043;-89
2023/01/04 15:00:35;;;;;;;6.03;3.37;;;;;;;6.92;81.00;99392.05;3947612;88;21031;-89
2023/01/04 15:06:47;;;;;;;7.67;3.72;;;;;;;6.95;80.90;99385.95;3958164;88;21023;-89
2023/01/04 15:12:49;;;;;;;6.22;3.27;;;;;;;6.96;80.95;99379.92;3932366;87;21899;-90
2023/01/04 15:18:51;;;;;;;6.62;3.50;;;;;;;7.03;80.94;99365.95;3995800;87;21896;-90
2023/01/04 15:24:52;;;;;;;8.35;3.95;;;;;;;7.01;80.90;99353.84;4035050;87;21036;-91
2023/01/04 15:30:54;;;;;;;10.15;4.33;;;;;;;6.99;80.79;99347.38;4036890;87;21064;-89
2023/01/04 15:36:55;;;;;;;8.88;4.40;;;;;;;6.99;80.92;99335.69;4037700;87;21062;-90
2023/01/04 15:42:59;;;;;;;8.40;3.47;;;;;;;6.94;80.95;99304.05;4036611;87;21012;-89
2023/01/04 15:49:01;;;;;;;13.08;5.28;;;;;;;6.86;81.01;99302.25;4035083;86;21029;-89
2023/01/04 15:55:02;;;;;;;10.80;4.25;;;;;;;6.77;81.00;99285.27;4036459;87;22284;-91
2023/01/04 16:01:13;;;;;;;8.25;4.30;;;;;;;6.77;81.21;99287.19;4034209;86;21029;-89
2023/01/04 16:07:14;;;;;;;8.73;3.92;;;;;;;6.79;81.13;99276.77;4041766;86;21048;-88
2023/01/04 16:13:16;;;;;;;7.03;3.80;;;;;;;6.89;80.95;99283.87;4037337;87;21935;-88
2023/01/04 16:19:19;;;;;;;7.72;3.90;;;;;;;6.99;81.25;99286.13;4022435;87;21574;-88
2023/01/04 16:25:21;;;;;;;8.90;3.90;;;;;;;7.06;81.11;99285.00;4006124;87;21095;-89
2023/01/04 16:31:23;;;;;;;7.40;3.83;;;;;;;7.10;80.46;99262.73;4006326;87;21003;-88
2023/01/04 16:37:30;;;;;;;9.13;4.72;;;;;;;7.11;81.13;99254.02;4007384;87;21639;-89
2023/01/04 16:43:45;;;;;;;9.65;5.08;;;;;;;7.07;81.65;99232.69;4007579;87;21825;-88
2023/01/04 16:49:52;;;;;;;14.25;6.90;;;;;;;6.98;81.88;99223.31;3990147;87;22061;-89
2023/01/04 16:55:53;;;;;;;;;;;;;;;6.90;82.20;99199.76;4013896;87;21079;-90
2023/01/04 17:01:57;;;;;;;10.32;5.20;;;;;;;6.76;83.21;99204.79;3897255;85;10000412;-89
2023/01/04 17:08:00;;;;;;;7.05;3.72;;;;;;;6.73;83.45;99197.88;4011272;86;21565;-89
2023/01/04 17:14:05;;;;;;;6.97;3.25;;;;;;;6.73;83.48;99186.99;4007934;86;21061;-88
2023/01/04 17:20:11;;;;;;;6.75;3.55;;;;;;;6.78;83.57;99167.72;3998121;86;21147;-89
2023/01/04 17:26:20;;;;;;;8.53;3.80;;;;;;;6.84;83.94;99160.89;3981824;87;21032;-88
2023/01/04 17:32:22;;;;;;;8.55;4.22;;;;;;;6.89;83.85;99124.67;3987281;87;20984;-88
2023/01/04 17:38:23;;;;;;;7.03;3.33;;;;;;;6.93;84.57;99079.31;3982830;87;21061;-89
2023/01/04 17:44:25;;;;;;;8.13;3.52;;;;;;;6.88;84.81;99095.89;3982191;87;21080;-89
2023/01/04 17:50:26;;;;;;;5.78;3.30;;;;;;;6.89;85.21;99103.50;3986476;87;21029;-90
2023/01/04 17:56:31;;;;;;;7.80;3.47;;;;;;;6.88;85.36;99084.20;3987997;87;22360;-89
2023/01/04 18:02:35;;;;;;;7.42;3.12;;;;;;;6.99;85.73;99063.52;3908724;89;21054;-89
2023/01/04 18:08:36;;;;;;;5.25;2.62;;;;;;;7.04;86.03;99058.62;3923083;89;21070;-88
2023/01/04 18:14:38;;;;;;;5.47;3.15;;;;;;;7.01;86.57;99052.52;3919811;89;21183;-89
2023/01/04 18:20:40;;;;;;;5.65;3.20;;;;;;;6.97;87.02;99048.13;4031224;86;21116;-88
2023/01/04 18:26:43;;;;;;;6.22;2.95;;;;;;;6.95;87.37;99051.75;4043615;86;21068;-88
2023/01/04 18:32:46;;;;;;;7.67;3.77;;;;;;;6.95;87.74;99044.39;4015562;87;21128;-89
2023/01/04 18:38:50;;;;;;;7.45;3.77;;;;;;;6.99;87.98;99031.66;4034957;87;21088;-88
2023/01/04 18:44:53;;;;;;;7.22;3.10;;;;;;;6.99;88.30;99006.36;4015867;87;22557;-89
2023/01/04 18:51:09;;;;;;;8.65;4.00;;;;;;;7.02;88.54;99010.53;4028581;86;21079;-88
2023/01/04 18:57:10;;;;;;;5.15;2.80;;;;;;;6.99;88.74;99003.08;3938292;88;21106;-89
2023/01/04 19:03:12;;;;;;;7.58;3.58;;;;;;;6.94;89.03;98979.42;4034704;86;21073;-89
2023/01/04 19:09:13;;;;;;;5.12;2.92;;;;;;;6.88;89.45;98976.72;4036708;87;21619;-90
2023/01/04 19:15:15;;;;;;;5.28;2.87;;;;;;;6.86;89.89;98977.08;4041300;85;21016;-88
2023/01/04 19:21:16;;;;;;;7.30;3.02;;;;;;;6.91;90.20;98986.91;4016386;86;21105;-89
2023/01/04 19:27:19;;;;;;;6.12;2.87;;;;;;;6.99;90.49;98973.13;4009387;87;21072;-90
2023/01/04 19:33:20;;;;;;;6.60;3.30;;;;;;;7.04;90.49;98966.08;4005727;87;21067;-87
2023/01/04 19:39:21;;;;;;;5.12;2.90;;;;;;;7.07;90.64;98961.28;4005766;87;21115;-90
2023/01/04 19:45:23;;;;;;;6.92;3.12;;;;;;;7.12;90.88;98968.39;4005923;86;21018;-89
2023/01/04 19:51:26;;;;;;;5.03;2.67;;;;;;;7.15;90.99;98958.95;4006385;87;20996;-90
2023/01/04 19:57:28;;;;;;;6.00;3.08;;;;;;;7.23;91.07;98954.46;4005734;87;21001;-89
2023/01/04 20:03:29;;;;;;;7.37;2.95;;;;;;;7.36;91.36;98928.71;4004473;87;21082;-88
2023/01/04 20:09:31;;;;;;;5.45;2.80;;;;;;;7.42;91.38;98925.92;4003268;87;21591;-89
2023/01/04 20:15:33;;;;;;;5.70;2.37;;;;;;;7.48;91.68;98913.04;4005266;87;21680;-89
2023/01/04 20:21:34;;;;;;;2.80;1.80;;;;;;;7.64;91.72;98913.75;4029614;86;21016;-89
2023/01/04 20:27:36;;;;;;;3.27;1.85;;;;;;;7.70;91.96;98903.37;4037930;87;21611;-88
2023/01/04 20:33:37;;;;;;;5.15;2.47;;;;;;;7.80;92.13;98890.53;4035148;87;21453;-89
2023/01/04 20:39:39;;;;;;;4.20;2.30;;;;;;;7.90;92.22;98864.07;4037451;87;20978;-89
2023/01/04 20:45:45;;;;;;;4.70;2.15;;;;;;;7.94;92.17;98864.91;4038052;87;21103;-88
2023/01/04 20:51:47;;;;;;;3.67;2.20;;;;;;;7.94;92.20;98875.81;4031168;86;21024;-88
2023/01/04 20:57:49;;;;;;;3.12;1.75;;;;;;;7.95;92.35;98857.73;4033659;86;21508;-90
2023/01/04 21:03:50;;;;;;;4.72;2.25;;;;;;;7.96;92.46;98860.70;4036389;86;21016;-89
2023/01/04 21:09:51;;;;;;;3.92;2.05;;;;;;;8.02;92.64;98859.81;4039994;86;21520;-89
2023/01/04 21:15:54;;;;;;;4.37;2.02;;;;;;;8.03;92.66;98839.01;4037793;86;21497;-88
2023/01/04 21:21:55;;;;;;;2.58;1.50;;;;;;;8.08;92.75;98828.97;4018048;87;21071;-89
2023/01/04 21:27:59;;;;;;;3.42;1.77;;;;;;;8.14;92.90;98830.25;4003897;87;21072;-87
2023/01/04 21:34:01;;;;;;;2.50;1.62;;;;;;;8.16;92.85;98816.45;4002565;87;21032;-89
2023/01/04 21:40:03;;;;;;;3.45;1.70;;;;;;;8.30;92.72;98814.00;4007060;87;21094;-89
2023/01/04 21:46:11;;;;;;;2.42;1.52;;;;;;;8.31;92.87;98822.41;3875815;90;21500;-89
2023/01/04 21:52:13;;;;;;;2.87;1.87;;;;;;;8.22;93.11;98800.03;3959142;88;21042;-88
2023/01/04 21:58:14;;;;;;;2.80;1.87;;;;;;;8.20;93.28;98790.05;4005116;87;21034;-88
2023/01/04 22:04:16;;;;;;;3.12;2.00;;;;;;;8.18;93.37;98778.71;3998277;87;21008;-90
2023/01/04 22:10:17;;;;;;;5.05;2.17;;;;;;;8.17;93.43;98766.24;3997262;87;21020;-88
2023/01/04 22:16:20;;;;;;;3.40;1.70;;;;;;;8.12;93.59;98758.92;3992123;87;21912;-89
2023/01/04 22:22:21;;;;;;;3.72;2.05;;;;;;;8.06;93.76;98749.48;3998617;87;21090;-89
2023/01/04 22:28:23;;;;;;;5.22;1.80;;;;;;;8.07;93.86;98750.48;3992231;87;21023;-88
2023/01/04 22:34:24;;;;;;;3.02;1.70;;;;;;;8.08;93.92;98741.14;3989327;88;21054;-90
2023/01/04 22:40:26;;;;;;;2.27;1.50;;;;;;;8.09;94.01;98716.03;3994410;88;21038;-89
2023/01/04 22:46:28;;;;;;;2.77;1.67;;;;;;;8.09;94.13;98717.40;3992722;88;21043;-87
2023/01/04 22:52:29;;;;;;;2.50;1.40;;;;;;;8.05;94.30;98703.70;3993432;88;20999;-90
2023/01/04 22:58:31;;;;;;;2.95;1.50;;;;;;;8.08;94.53;98717.97;3987551;88;21087;-89
2023/01/04 23:04:32;;;;;;;2.72;1.25;;;;;;;8.08;94.60;98709.78;3989923;87;21086;-89
2023/01/04 23:10:37;;;;;;;2.05;1.32;;;;;;;8.03;95.07;98704.67;4000585;87;21094;-89
2023/01/04 23:16:38;;;;;;;1.45;0.80;;;;;;;8.07;95.56;98705.50;4002466;87;21043;-87
2023/01/04 23:22:40;;;;;;;1.67;0.90;;;;;;;8.12;95.76;98682.02;3973149;87;21015;-91
2023/01/04 23:28:43;;;;;;;1.35;0.80;;;;;;;8.17;96.41;98678.98;3945512;87;21034;-88
2023/01/04 23:34:50;;;;;;;2.08;0.90;;;;;;;8.14;96.64;98665.30;3942278;87;21092;-89
2023/01/04 23:40:51;;;;;;;3.10;1.05;;;;;;;8.17;96.92;98657.18;3953595;89;21022;-90
2023/01/04 23:46:56;;;;;;;1.60;1.10;;;;;;;8.16;97.13;98656.19;3941177;89;21503;-89
2023/01/04 23:52:58;;;;;;;2.77;1.20;;;;;;;8.09;97.22;98643.80;3935567;87;21351;-90
2023/01/04 23:59:00;;;;;;;2.33;1.02;;;;;;;7.99;97.47;98631.57;3939582;87;21129;-89
